Time;durP1;ratioP1;P1;durP2;ratioP2;P2;SDS_P1;SDS_P2;PMS_P1;PMS_P2;Temp;Humidity;BMP_temperature;BMP_pressure;BME280_temperature;BME280_humidity;BME280_pressure;Samples;Min_cycle;Max_cycle;Signal;HPM_P1;HPM_P2
2023/03/30 00:02:21;;;;;;;6.30;3.63;;;13.00;99.90;;;;;;5094401;28;20646;-70
2023/03/30 00:04:51;;;;;;;3.90;3.25;;;13.00;99.90;;;;;;5095156;28;20201;-70
2023/03/30 00:07:18;;;;;;;7.30;3.35;;;13.00;99.90;;;;;;5094591;28;20601;-70
2023/03/30 00:09:45;;;;;;;5.68;3.40;;;13.00;99.90;;;;;;5095505;28;20714;-70
2023/03/30 00:12:14;;;;;;;6.63;3.80;;;13.00;99.90;;;;;;5095877;28;20180;-70
2023/03/30 00:14:41;;;;;;;3.88;3.35;;;12.90;99.90;;;;;;5095558;28;20174;-70
2023/03/30 00:17:08;;;;;;;4.13;3.30;;;12.80;99.90;;;;;;5094273;28;20597;-69
2023/03/30 00:19:37;;;;;;;3.72;3.17;;;12.70;99.90;;;;;;5094648;28;20208;-70
2023/03/30 00:22:08;;;;;;;6.65;3.40;;;12.70;99.90;;;;;;5095395;28;20226;-70
2023/03/30 00:24:35;;;;;;;8.50;3.60;;;12.80;99.90;;;;;;5095532;28;20258;-70
2023/03/30 00:27:01;;;;;;;7.38;3.63;;;12.80;99.90;;;;;;5093967;28;20180;-70
2023/03/30 00:29:27;;;;;;;6.97;3.28;;;12.80;99.90;;;;;;5095259;28;20243;-70
2023/03/30 00:31:53;;;;;;;6.95;3.28;;;12.80;99.90;;;;;;5093806;28;20169;-70
2023/03/30 00:34:19;;;;;;;5.15;3.53;;;12.90;99.90;;;;;;5094969;28;20702;-70
2023/03/30 00:36:45;;;;;;;4.32;3.45;;;12.90;99.90;;;;;;5095033;28;20177;-70
2023/03/30 00:39:12;;;;;;;4.32;3.20;;;13.00;99.90;;;;;;5093816;28;20197;-70
2023/03/30 00:41:38;;;;;;;4.60;3.35;;;12.90;99.90;;;;;;5093727;28;20181;-70
2023/03/30 00:44:08;;;;;;;5.80;3.13;;;12.80;99.90;;;;;;5095174;28;20188;-70
2023/03/30 00:46:34;;;;;;;3.58;3.20;;;12.90;99.90;;;;;;5094841;28;20165;-70
2023/03/30 00:49:07;;;;;;;6.00;3.30;;;13.00;99.90;;;;;;5094611;28;20189;-70
2023/03/30 00:51:37;;;;;;;7.85;3.13;;;13.00;99.90;;;;;;5095224;28;20165;-70
2023/03/30 00:54:08;;;;;;;7.13;3.30;;;13.10;99.90;;;;;;5093621;28;20219;-70
2023/03/30 00:56:34;;;;;;;8.75;3.50;;;13.10;99.90;;;;;;5095015;28;20169;-70
2023/03/30 00:59:02;;;;;;;9.98;3.60;;;13.10;99.90;;;;;;5093308;28;20674;-70
2023/03/30 01:01:29;;;;;;;6.90;3.28;;;13.10;99.90;;;;;;5094054;28;20249;-70
2023/03/30 01:04:04;;;;;;;5.10;3.38;;;13.10;99.90;;;;;;5095140;28;20193;-70
2023/03/30 01:06:31;;;;;;;6.28;3.55;;;13.10;99.90;;;;;;5093652;28;20168;-70
2023/03/30 01:08:57;;;;;;;6.47;3.33;;;13.10;99.90;;;;;;5093602;28;20193;-70
2023/03/30 01:11:25;;;;;;;5.60;3.20;;;13.00;99.90;;;;;;5096230;28;20652;-70
2023/03/30 01:13:57;;;;;;;8.10;3.20;;;12.90;99.90;;;;;;5097307;28;20576;-70
2023/03/30 01:17:12;;;;;;;6.47;3.33;;;13.00;99.90;;;;;;5095535;28;20192;-70
2023/03/30 01:19:53;;;;;;;4.60;3.50;;;12.80;99.90;;;;;;5072092;28;20340;-70
2023/03/30 01:22:42;;;;;;;6.28;3.33;;;12.90;99.90;;;;;;5072326;28;20605;-70
2023/03/30 01:25:32;;;;;;;5.30;3.10;;;13.10;99.90;;;;;;5067327;28;20311;-70
2023/03/30 01:28:14;;;;;;;5.22;3.35;;;13.10;99.90;;;;;;5074308;28;20173;-70
2023/03/30 01:31:01;;;;;;;4.90;3.42;;;13.20;99.90;;;;;;5074112;28;20168;-70
2023/03/30 01:33:42;;;;;;;3.80;3.00;;;13.40;99.90;;;;;;5074116;28;20284;-70
2023/03/30 01:36:34;;;;;;;3.55;3.20;;;13.40;99.90;;;;;;5074038;28;20154;-69
2023/03/30 01:39:18;;;;;;;4.85;3.55;;;13.40;99.90;;;;;;5074234;28;20197;-69
2023/03/30 01:41:57;;;;;;;3.72;3.10;;;13.50;99.90;;;;;;5074028;28;20170;-69
2023/03/30 01:44:48;;;;;;;5.22;3.10;;;13.60;99.90;;;;;;5073798;28;20265;-68
2023/03/30 01:47:26;;;;;;;7.07;3.53;;;13.70;99.90;;;;;;5072489;28;20170;-68
2023/03/30 01:50:01;;;;;;;5.43;3.05;;;13.60;99.90;;;;;;5072287;28;20208;-68
2023/03/30 01:52:40;;;;;;;8.60;3.22;;;13.50;99.90;;;;;;5077674;28;20200;-68
2023/03/30 01:55:09;;;;;;;5.90;3.72;;;13.50;99.90;;;;;;5093653;28;20161;-69
2023/03/30 01:57:59;;;;;;;5.82;3.28;;;13.60;99.90;;;;;;5093675;28;20192;-68
2023/03/30 02:00:27;;;;;;;6.22;3.60;;;13.60;99.90;;;;;;5093622;28;20245;-68
2023/03/30 02:03:16;;;;;;;5.70;3.38;;;13.60;99.90;;;;;;5092351;28;20184;-68
2023/03/30 02:05:44;;;;;;;8.38;3.72;;;13.60;99.90;;;;;;5094092;28;20159;-69
2023/03/30 02:08:18;;;;;;;7.07;3.45;;;13.70;99.90;;;;;;5093867;28;20169;-70
2023/03/30 02:10:46;;;;;;;6.95;3.75;;;13.80;99.90;;;;;;5092782;28;20641;-70
2023/03/30 02:13:14;;;;;;;5.68;3.47;;;13.80;99.90;;;;;;5094033;28;20176;-70
2023/03/30 02:15:50;;;;;;;4.68;3.60;;;13.80;99.90;;;;;;5093722;28;20173;-70
2023/03/30 02:18:18;;;;;;;3.65;3.08;;;13.80;99.90;;;;;;5092227;28;20626;-70
2023/03/30 02:20:44;;;;;;;5.45;3.40;;;13.80;99.90;;;;;;5092177;28;20555;-70
2023/03/30 02:23:10;;;;;;;5.78;3.53;;;13.80;99.90;;;;;;5092292;28;20180;-70
2023/03/30 02:25:39;;;;;;;7.60;3.55;;;14.00;99.90;;;;;;5093689;28;20576;-70
2023/03/30 02:28:08;;;;;;;9.10;3.53;;;14.00;99.90;;;;;;5097721;28;20196;-70
2023/03/30 02:30:37;;;;;;;9.48;3.60;;;13.90;99.90;;;;;;5096127;28;20673;-70
2023/03/30 02:33:04;;;;;;;7.85;3.50;;;13.90;99.90;;;;;;5097590;28;20177;-70
2023/03/30 02:35:48;;;;;;;7.78;3.53;;;13.90;99.90;;;;;;5097513;28;20248;-70
2023/03/30 02:38:22;;;;;;;3.28;2.92;;;13.80;99.90;;;;;;5097387;28;20179;-71
2023/03/30 02:41:07;;;;;;;5.32;3.15;;;13.90;99.90;;;;;;5096101;28;20187;-70
2023/03/30 02:43:42;;;;;;;7.95;4.15;;;13.90;99.90;;;;;;5096038;28;20208;-70
2023/03/30 02:46:18;;;;;;;7.47;3.35;;;13.90;99.90;;;;;;5097217;28;20168;-71
2023/03/30 02:48:54;;;;;;;4.40;3.17;;;13.90;99.90;;;;;;5097369;28;20245;-70
2023/03/30 02:51:35;;;;;;;7.38;3.15;;;14.00;99.90;;;;;;5095949;28;20165;-70
2023/03/30 02:54:16;;;;;;;5.85;3.20;;;14.00;99.90;;;;;;5097143;28;20657;-70
2023/03/30 02:56:47;;;;;;;8.35;3.75;;;14.10;99.90;;;;;;5095926;28;20732;-70
2023/03/30 02:59:18;;;;;;;4.57;3.30;;;14.20;99.90;;;;;;5096906;28;20681;-70
2023/03/30 03:01:58;;;;;;;6.72;3.30;;;14.20;99.90;;;;;;5097329;28;20172;-70
2023/03/30 03:04:27;;;;;;;9.45;3.90;;;14.10;99.90;;;;;;5097131;28;20231;-70
2023/03/30 03:06:54;;;;;;;8.07;3.70;;;14.10;99.90;;;;;;5095786;28;20177;-70
2023/03/30 03:09:23;;;;;;;8.57;3.95;;;14.10;99.90;;;;;;5096837;28;20226;-70
2023/03/30 03:11:50;;;;;;;9.32;3.80;;;14.10;99.90;;;;;;5097176;28;20164;-70
2023/03/30 03:14:16;;;;;;;7.20;3.45;;;14.00;99.90;;;;;;5095520;28;20180;-70
2023/03/30 03:16:42;;;;;;;10.65;3.83;;;14.00;99.90;;;;;;5095403;28;20315;-70
2023/03/30 03:19:08;;;;;;;11.15;3.55;;;13.90;99.90;;;;;;5096746;28;20620;-70
2023/03/30 03:21:35;;;;;;;6.20;3.35;;;13.90;99.90;;;;;;5096701;28;20204;-70
2023/03/30 03:24:02;;;;;;;6.30;3.42;;;13.90;99.90;;;;;;5095218;28;20287;-70
2023/03/30 03:26:27;;;;;;;6.05;3.70;;;14.00;99.90;;;;;;5095687;28;20254;-70
2023/03/30 03:28:53;;;;;;;6.47;3.35;;;14.00;99.90;;;;;;5097041;28;20665;-70
2023/03/30 03:31:19;;;;;;;9.35;3.70;;;14.00;99.90;;;;;;5095196;28;20181;-70
2023/03/30 03:33:45;;;;;;;3.25;2.95;;;13.90;99.90;;;;;;5096450;28;20582;-70
2023/03/30 03:36:11;;;;;;;6.65;3.45;;;13.90;99.90;;;;;;5096342;28;20646;-70
2023/03/30 03:38:37;;;;;;;5.65;3.60;;;13.90;99.90;;;;;;5095693;28;20193;-70
2023/03/30 03:41:03;;;;;;;5.43;3.28;;;13.80;99.90;;;;;;5096462;28;20188;-70
2023/03/30 03:43:29;;;;;;;6.30;3.40;;;13.90;99.90;;;;;;5094855;28;20197;-70
2023/03/30 03:45:55;;;;;;;5.10;3.47;;;13.90;99.90;;;;;;5096280;28;20173;-70
2023/03/30 03:48:22;;;;;;;4.43;3.33;;;13.90;99.90;;;;;;5096225;28;20570;-70
2023/03/30 03:50:54;;;;;;;8.20;3.63;;;13.90;99.90;;;;;;5095760;28;20203;-70
2023/03/30 03:53:21;;;;;;;4.90;3.33;;;13.90;99.90;;;;;;5096137;28;20180;-70
2023/03/30 03:55:47;;;;;;;6.00;3.88;;;13.90;99.90;;;;;;5094676;28;20196;-70
2023/03/30 03:58:13;;;;;;;6.40;3.40;;;14.00;99.90;;;;;;5094539;28;20552;-70
2023/03/30 04:00:39;;;;;;;9.35;4.00;;;13.90;99.90;;;;;;5094516;28;20181;-70
2023/03/30 04:03:06;;;;;;;6.85;3.88;;;13.90;99.90;;;;;;5094876;28;20179;-70
2023/03/30 04:05:32;;;;;;;6.13;3.10;;;13.80;99.90;;;;;;5098772;28;20264;-70
2023/03/30 04:07:58;;;;;;;5.97;3.53;;;13.80;99.90;;;;;;5097909;28;20205;-70
2023/03/30 04:10:24;;;;;;;6.95;3.78;;;13.80;99.90;;;;;;5097501;28;20224;-70
2023/03/30 04:12:49;;;;;;;7.22;3.70;;;13.80;99.90;;;;;;5097108;28;20562;-71
2023/03/30 04:15:15;;;;;;;7.25;3.35;;;13.70;99.90;;;;;;5096222;28;20226;-68
2023/03/30 04:17:43;;;;;;;6.43;3.20;;;13.70;99.90;;;;;;5094369;28;20230;-69
2023/03/30 04:20:10;;;;;;;6.10;3.33;;;13.60;99.90;;;;;;5094160;28;20741;-68
2023/03/30 04:22:42;;;;;;;6.30;3.75;;;13.50;99.90;;;;;;5102166;28;20262;-68
2023/03/30 04:25:13;;;;;;;7.55;3.40;;;13.50;99.90;;;;;;5116023;28;20196;-68
2023/03/30 04:27:41;;;;;;;7.13;3.35;;;13.40;99.90;;;;;;5114672;28;20656;-68
2023/03/30 04:30:09;;;;;;;5.13;3.03;;;13.50;99.90;;;;;;5114455;28;20672;-68
2023/03/30 04:32:37;;;;;;;5.57;3.75;;;13.40;99.90;;;;;;5115911;28;20183;-68
2023/03/30 04:35:07;;;;;;;7.25;3.50;;;13.50;99.90;;;;;;5115456;28;20177;-68
2023/03/30 04:37:34;;;;;;;5.93;3.22;;;13.60;99.90;;;;;;5115920;28;20172;-68
2023/03/30 04:40:01;;;;;;;7.72;4.07;;;13.60;99.90;;;;;;5115460;28;20226;-68
2023/03/30 04:42:33;;;;;;;6.28;3.60;;;13.70;99.90;;;;;;5115514;28;20186;-69
2023/03/30 04:45:03;;;;;;;5.88;3.20;;;13.80;99.90;;;;;;5114204;28;20199;-68
2023/03/30 04:47:29;;;;;;;5.47;3.58;;;13.90;99.90;;;;;;5114050;28;20617;-68
2023/03/30 04:49:55;;;;;;;8.15;3.30;;;13.90;99.90;;;;;;5112832;28;20683;-68
2023/03/30 04:52:21;;;;;;;6.95;3.40;;;14.00;99.90;;;;;;5110886;28;20192;-68
2023/03/30 04:54:47;;;;;;;7.00;3.20;;;14.10;99.90;;;;;;5094718;28;20177;-68
2023/03/30 04:57:13;;;;;;;6.05;3.40;;;14.10;99.90;;;;;;5095043;28;20174;-68
2023/03/30 04:59:40;;;;;;;7.13;3.47;;;14.10;99.90;;;;;;5093572;28;20292;-68
2023/03/30 05:02:06;;;;;;;8.38;3.30;;;14.00;99.90;;;;;;5094485;28;20182;-68
2023/03/30 05:04:32;;;;;;;6.50;3.38;;;13.90;99.90;;;;;;5094499;28;20193;-70
2023/03/30 05:06:57;;;;;;;5.65;3.25;;;13.90;99.90;;;;;;5095026;28;20210;-71
2023/03/30 05:09:23;;;;;;;5.78;3.40;;;13.90;99.90;;;;;;5094706;28;20585;-68
2023/03/30 05:11:49;;;;;;;7.35;3.58;;;13.90;99.90;;;;;;5094838;28;20222;-68
2023/03/30 05:14:15;;;;;;;7.13;3.75;;;13.90;99.90;;;;;;5094575;28;20177;-70
2023/03/30 05:16:41;;;;;;;6.18;4.10;;;13.90;99.90;;;;;;5093399;28;20181;-70
2023/03/30 05:19:07;;;;;;;7.22;3.55;;;13.90;99.90;;;;;;5094647;28;20189;-70
2023/03/30 05:21:33;;;;;;;10.40;4.10;;;13.90;99.90;;;;;;5094246;28;20181;-70
2023/03/30 05:23:59;;;;;;;12.93;3.72;;;13.90;99.90;;;;;;5094074;28;20258;-70
2023/03/30 05:26:26;;;;;;;6.95;3.70;;;13.90;99.90;;;;;;5094363;28;20177;-70
2023/03/30 05:28:53;;;;;;;7.00;3.67;;;13.90;99.90;;;;;;5094125;28;20275;-70
2023/03/30 05:31:19;;;;;;;9.88;3.83;;;13.80;99.90;;;;;;5094090;28;20230;-70
2023/03/30 05:33:45;;;;;;;7.75;3.95;;;13.80;99.90;;;;;;5095164;28;20173;-71
2023/03/30 05:36:12;;;;;;;6.60;3.58;;;13.80;99.90;;;;;;5092697;28;20549;-68
2023/03/30 05:38:38;;;;;;;7.63;4.03;;;13.80;99.90;;;;;;5093777;28;20193;-68
2023/03/30 05:41:05;;;;;;;6.80;3.50;;;13.70;99.90;;;;;;5092537;28;20176;-68
2023/03/30 05:43:32;;;;;;;7.00;3.35;;;13.70;99.90;;;;;;5093771;28;20262;-68
2023/03/30 05:45:58;;;;;;;7.60;3.65;;;13.70;99.90;;;;;;5094047;28;20165;-68
2023/03/30 05:48:24;;;;;;;8.30;3.50;;;13.80;99.90;;;;;;5092419;28;20714;-69
2023/03/30 05:50:50;;;;;;;5.57;3.75;;;13.80;99.90;;;;;;5092422;28;20525;-68
2023/03/30 05:53:16;;;;;;;7.15;3.70;;;13.70;99.90;;;;;;5093617;28;20185;-68
2023/03/30 05:55:46;;;;;;;7.05;3.88;;;13.80;99.90;;;;;;5093554;28;20172;-68
2023/03/30 05:58:12;;;;;;;6.25;3.90;;;13.80;99.90;;;;;;5092208;28;20191;-68
2023/03/30 06:00:40;;;;;;;8.65;3.80;;;13.90;99.90;;;;;;5092332;28;20703;-68
2023/03/30 06:03:07;;;;;;;9.18;3.85;;;13.90;99.90;;;;;;5093884;28;20522;-68
2023/03/30 06:05:35;;;;;;;5.90;3.53;;;13.90;99.90;;;;;;5093389;28;20196;-68
2023/03/30 06:08:01;;;;;;;8.25;3.78;;;14.10;99.90;;;;;;5092349;28;20169;-68
2023/03/30 06:10:27;;;;;;;6.97;4.32;;;14.10;99.90;;;;;;5092886;28;20193;-68
2023/03/30 06:12:52;;;;;;;8.35;3.97;;;14.10;99.90;;;;;;5093744;28;20154;-67
2023/03/30 06:15:18;;;;;;;8.93;3.70;;;14.20;99.90;;;;;;5094102;28;20626;-66
2023/03/30 06:17:44;;;;;;;6.15;3.50;;;14.30;99.90;;;;;;5093940;28;20165;-66
2023/03/30 06:20:11;;;;;;;5.32;3.13;;;14.30;99.90;;;;;;5093047;28;20197;-66
2023/03/30 06:22:40;;;;;;;5.60;3.55;;;14.30;99.90;;;;;;5093399;28;20177;-66
2023/03/30 06:25:07;;;;;;;8.13;3.50;;;14.30;99.90;;;;;;5093147;28;20242;-66
2023/03/30 06:27:34;;;;;;;6.82;3.40;;;14.30;99.90;;;;;;5093312;28;20181;-66
2023/03/30 06:30:00;;;;;;;4.82;3.35;;;14.30;99.90;;;;;;5093249;28;20185;-66
2023/03/30 06:32:26;;;;;;;7.10;3.28;;;14.30;99.90;;;;;;5091974;28;20264;-66
2023/03/30 06:34:52;;;;;;;4.63;3.10;;;14.30;99.90;;;;;;5091870;28;20234;-66
2023/03/30 06:37:19;;;;;;;8.70;3.25;;;14.30;99.90;;;;;;5093594;28;20158;-66
2023/03/30 06:39:46;;;;;;;5.00;3.20;;;14.30;99.90;;;;;;5091816;28;20201;-66
2023/03/30 06:42:12;;;;;;;5.47;3.85;;;14.30;99.90;;;;;;5093264;28;20268;-66
2023/03/30 06:44:38;;;;;;;4.80;3.15;;;14.30;99.90;;;;;;5093449;28;20268;-67
2023/03/30 06:47:05;;;;;;;8.23;3.30;;;14.30;99.90;;;;;;5091902;28;20641;-67
2023/03/30 06:49:31;;;;;;;7.95;3.15;;;14.40;99.90;;;;;;5093061;28;20201;-67
2023/03/30 06:51:57;;;;;;;5.00;3.00;;;14.30;99.90;;;;;;5093446;28;20154;-68
2023/03/30 06:54:23;;;;;;;7.40;3.30;;;14.40;99.90;;;;;;5092986;28;20205;-68
2023/03/30 06:56:49;;;;;;;6.10;3.33;;;14.30;99.90;;;;;;5093223;28;20173;-67
2023/03/30 06:59:16;;;;;;;9.45;3.50;;;14.30;99.90;;;;;;5091422;28;20254;-67
2023/03/30 07:01:42;;;;;;;4.40;3.00;;;14.30;99.90;;;;;;5091744;28;20230;-67
2023/03/30 07:04:08;;;;;;;5.80;3.30;;;14.30;99.90;;;;;;5092836;28;20205;-68
2023/03/30 07:06:34;;;;;;;5.22;3.30;;;14.40;99.90;;;;;;5092692;28;20189;-67
2023/03/30 07:09:01;;;;;;;7.63;3.50;;;14.40;99.90;;;;;;5093385;28;20189;-67
2023/03/30 07:11:27;;;;;;;5.72;3.40;;;14.50;99.90;;;;;;5093168;28;20169;-68
2023/03/30 07:13:57;;;;;;;8.30;4.18;;;14.40;99.90;;;;;;5093170;28;20628;-68
2023/03/30 07:16:23;;;;;;;8.07;3.60;;;14.50;99.90;;;;;;5096869;28;20169;-67
2023/03/30 07:18:50;;;;;;;12.10;3.65;;;14.60;99.90;;;;;;5095147;28;20197;-67
2023/03/30 07:21:17;;;;;;;6.05;3.50;;;14.70;99.90;;;;;;5096741;28;20245;-67
2023/03/30 07:23:43;;;;;;;6.90;3.42;;;14.70;99.90;;;;;;5095291;28;20205;-67
2023/03/30 07:26:09;;;;;;;7.10;3.80;;;14.70;99.90;;;;;;5097144;28;20231;-67
2023/03/30 07:28:39;;;;;;;7.75;4.28;;;14.80;99.90;;;;;;5098944;28;20193;-68
2023/03/30 07:31:12;;;;;;;5.22;3.72;;;15.10;99.90;;;;;;5096495;28;20185;-67
2023/03/30 07:33:37;;;;;;;11.25;4.28;;;15.30;99.90;;;;;;5096250;28;20247;-67
2023/03/30 07:36:04;;;;;;;6.78;4.22;;;15.30;99.90;;;;;;5096635;28;20278;-67
2023/03/30 07:38:31;;;;;;;6.68;3.88;;;15.20;99.90;;;;;;5096887;28;20626;-67
2023/03/30 07:40:57;;;;;;;8.05;3.92;;;15.20;99.90;;;;;;5094984;28;20181;-67
2023/03/30 07:43:22;;;;;;;8.02;4.05;;;15.20;99.90;;;;;;5094951;28;20214;-67
2023/03/30 07:45:48;;;;;;;7.20;4.10;;;15.20;99.90;;;;;;5096780;28;20169;-66
2023/03/30 07:48:14;;;;;;;7.40;3.78;;;15.20;99.90;;;;;;5097522;28;20181;-67
2023/03/30 07:50:40;;;;;;;6.22;4.07;;;15.20;99.90;;;;;;5096301;28;20326;-70
2023/03/30 07:53:06;;;;;;;7.80;3.83;;;15.20;99.90;;;;;;5095450;28;20184;-68
2023/03/30 07:55:31;;;;;;;7.15;3.53;;;15.10;99.90;;;;;;5096774;28;20177;-68
2023/03/30 07:57:57;;;;;;;4.80;3.40;;;15.00;99.90;;;;;;5096821;28;20221;-71
2023/03/30 08:00:23;;;;;;;5.80;3.38;;;14.90;99.90;;;;;;5096739;28;20559;-66
2023/03/30 08:02:49;;;;;;;5.22;3.25;;;15.00;99.90;;;;;;5096612;28;20252;-69
2023/03/30 08:05:16;;;;;;;3.85;2.90;;;15.00;99.90;;;;;;5095985;28;20205;-68
2023/03/30 08:07:43;;;;;;;8.80;3.25;;;15.00;99.90;;;;;;5094516;28;20172;-66
2023/03/30 08:10:10;;;;;;;9.60;3.65;;;14.90;99.90;;;;;;5097397;28;20536;-68
2023/03/30 08:12:36;;;;;;;9.90;3.78;;;14.80;99.90;;;;;;5096305;28;20165;-66
2023/03/30 08:15:03;;;;;;;5.68;3.17;;;14.80;99.90;;;;;;5098692;28;20230;-68
2023/03/30 08:17:30;;;;;;;8.00;3.83;;;14.70;99.90;;;;;;5095487;28;20187;-67
2023/03/30 08:19:56;;;;;;;12.48;4.18;;;14.50;99.90;;;;;;5095844;28;20201;-68
2023/03/30 08:22:22;;;;;;;9.35;3.95;;;14.40;99.90;;;;;;5095529;28;20680;-69
2023/03/30 08:24:47;;;;;;;5.55;3.58;;;14.30;99.90;;;;;;5093728;28;20201;-70
2023/03/30 08:27:13;;;;;;;5.47;3.42;;;14.30;99.90;;;;;;5095424;28;20175;-70
2023/03/30 08:29:40;;;;;;;4.70;3.63;;;14.40;99.90;;;;;;5094175;28;20196;-70
2023/03/30 08:32:06;;;;;;;6.85;3.58;;;14.40;99.90;;;;;;5095086;28;20622;-69
2023/03/30 08:34:32;;;;;;;4.25;3.15;;;14.30;99.90;;;;;;5093714;28;20201;-69
2023/03/30 08:36:58;;;;;;;10.45;3.70;;;14.20;99.90;;;;;;5094930;28;20206;-69
2023/03/30 08:39:25;;;;;;;4.45;3.30;;;14.10;99.90;;;;;;5093553;28;20209;-70
2023/03/30 08:42:15;;;;;;;11.65;3.47;;;14.00;99.90;;;;;;5094977;28;20169;-70
2023/03/30 08:44:46;;;;;;;6.93;3.33;;;14.00;99.90;;;;;;5095093;28;20189;-71
2023/03/30 08:47:16;;;;;;;8.93;3.70;;;14.00;99.90;;;;;;5093547;28;20216;-70
2023/03/30 08:50:16;;;;;;;6.10;3.45;;;13.70;99.90;;;;;;5094725;28;20661;-70
2023/03/30 08:52:42;;;;;;;7.45;3.72;;;13.60;99.90;;;;;;5092889;28;20223;-71
2023/03/30 08:55:24;;;;;;;8.98;3.75;;;13.50;99.90;;;;;;5094799;28;20165;-71
2023/03/30 08:57:57;;;;;;;6.03;3.55;;;13.40;99.90;;;;;;5094578;28;20267;-71
2023/03/30 09:00:45;;;;;;;6.85;3.25;;;13.30;99.90;;;;;;5093435;28;20235;-70
2023/03/30 09:03:11;;;;;;;7.00;3.50;;;13.10;99.90;;;;;;5093414;28;20181;-71
2023/03/30 09:05:44;;;;;;;7.45;3.80;;;12.80;99.90;;;;;;5093153;28;20681;-71
2023/03/30 09:08:21;;;;;;;6.90;3.83;;;12.40;99.90;;;;;;5093543;28;20165;-71
2023/03/30 09:10:57;;;;;;;4.78;3.60;;;12.30;99.90;;;;;;5094638;28;20614;-71
2023/03/30 09:13:28;;;;;;;8.20;4.07;;;12.20;99.90;;;;;;5094666;28;20202;-71
2023/03/30 09:16:18;;;;;;;7.45;3.53;;;12.20;99.90;;;;;;5094723;28;20514;-71
2023/03/30 09:18:49;;;;;;;7.28;3.63;;;12.20;99.90;;;;;;5094362;28;20185;-70
2023/03/30 09:21:21;;;;;;;4.57;3.90;;;12.30;99.90;;;;;;5094488;28;20157;-71
2023/03/30 09:23:47;;;;;;;6.32;3.60;;;12.40;99.90;;;;;;5094230;28;20223;-71
2023/03/30 09:26:31;;;;;;;6.47;3.50;;;12.70;99.90;;;;;;5094130;28;20725;-69
2023/03/30 09:28:59;;;;;;;6.90;3.50;;;13.10;99.90;;;;;;5093943;28;20181;-69
2023/03/30 09:31:40;;;;;;;6.10;3.65;;;13.40;99.90;;;;;;5093977;28;20165;-69
2023/03/30 09:34:19;;;;;;;9.15;3.70;;;13.50;99.90;;;;;;5094032;28;20157;-69
2023/03/30 09:37:04;;;;;;;7.75;3.58;;;13.40;99.90;;;;;;5092043;28;20173;-69
2023/03/30 09:39:34;;;;;;;7.85;3.20;;;13.40;99.90;;;;;;5093802;28;20200;-68
2023/03/30 09:42:35;;;;;;;7.93;3.58;;;13.20;99.90;;;;;;5092572;28;20185;-69
2023/03/30 09:45:12;;;;;;;9.32;3.55;;;13.40;99.90;;;;;;5094446;28;20189;-69
2023/03/30 09:47:41;;;;;;;6.20;3.50;;;13.60;99.90;;;;;;5094484;28;20628;-71
2023/03/30 09:50:08;;;;;;;8.90;3.70;;;13.90;99.90;;;;;;5092389;28;20276;-71
2023/03/30 09:52:37;;;;;;;9.63;3.60;;;14.30;99.90;;;;;;5094111;28;20177;-70
2023/03/30 09:55:21;;;;;;;12.35;4.13;;;14.60;99.90;;;;;;5093861;28;20165;-71
2023/03/30 09:57:51;;;;;;;6.47;3.30;;;15.00;99.90;;;;;;5092286;28;20188;-71
2023/03/30 10:00:22;;;;;;;9.38;3.67;;;15.30;99.90;;;;;;5093731;28;20200;-71
2023/03/30 10:02:57;;;;;;;10.57;3.67;;;15.50;99.90;;;;;;5092531;28;20590;-71
2023/03/30 10:05:23;;;;;;;7.95;3.30;;;15.30;99.90;;;;;;5092184;28;20267;-70
2023/03/30 10:08:16;;;;;;;14.95;3.67;;;14.90;99.90;;;;;;5093728;28;20166;-71
2023/03/30 10:10:42;;;;;;;6.40;3.28;;;14.70;99.90;;;;;;5094033;28;20550;-71
2023/03/30 10:13:20;;;;;;;11.50;3.67;;;14.50;99.90;;;;;;5093913;28;20180;-71
2023/03/30 10:15:52;;;;;;;6.53;3.67;;;14.30;99.90;;;;;;5093663;28;20153;-71
2023/03/30 10:18:26;;;;;;;8.07;3.42;;;13.50;99.90;;;;;;5093794;28;20157;-70
2023/03/30 10:21:02;;;;;;;6.60;3.25;;;12.80;99.90;;;;;;5093555;28;20679;-71
2023/03/30 10:23:33;;;;;;;5.25;3.60;;;12.30;99.90;;;;;;5093697;28;20176;-71
2023/03/30 10:26:04;;;;;;;5.75;3.65;;;12.10;99.90;;;;;;5092137;28;20176;-72
2023/03/30 10:28:32;;;;;;;12.80;3.63;;;12.00;99.90;;;;;;5092331;28;20648;-71
2023/03/30 10:31:02;;;;;;;10.95;4.13;;;11.90;99.90;;;;;;5093714;28;20195;-71
2023/03/30 10:33:30;;;;;;;6.75;3.63;;;11.90;99.90;;;;;;5093107;28;20169;-71
2023/03/30 10:36:01;;;;;;;5.03;3.70;;;12.00;99.90;;;;;;5091878;28;20655;-72
2023/03/30 10:38:32;;;;;;;7.53;3.77;;;12.00;99.90;;;;;;5093514;28;20157;-71
2023/03/30 10:41:07;;;;;;;10.20;4.25;;;12.00;99.90;;;;;;5093301;28;20180;-71
2023/03/30 10:43:34;;;;;;;11.25;4.50;;;11.90;99.90;;;;;;5093795;28;20153;-71
2023/03/30 10:46:14;;;;;;;6.68;3.72;;;11.90;99.90;;;;;;5094050;28;20174;-71
2023/03/30 10:48:53;;;;;;;7.57;3.33;;;11.90;99.90;;;;;;5094918;28;20191;-71
2023/03/30 10:51:26;;;;;;;13.02;3.80;;;11.80;99.90;;;;;;5097199;28;20164;-71
2023/03/30 10:54:05;;;;;;;6.15;3.83;;;11.90;99.90;;;;;;5097685;28;20181;-73
2023/03/30 10:56:41;;;;;;;11.20;3.63;;;11.90;99.90;;;;;;5097283;28;20524;-71
2023/03/30 10:59:25;;;;;;;12.90;4.38;;;11.90;99.90;;;;;;5096884;28;20266;-73
2023/03/30 11:02:16;;;;;;;11.73;4.32;;;12.10;99.90;;;;;;5097189;28;20629;-72
2023/03/30 11:04:46;;;;;;;13.57;3.85;;;12.20;99.90;;;;;;5095704;28;20291;-68
2023/03/30 11:07:23;;;;;;;8.13;3.83;;;12.30;99.90;;;;;;5095563;28;20210;-67
2023/03/30 11:10:03;;;;;;;9.93;4.15;;;12.30;99.90;;;;;;5096657;28;20200;-67
2023/03/30 11:12:38;;;;;;;12.20;4.32;;;12.40;99.90;;;;;;5095387;28;20169;-66
2023/03/30 11:15:18;;;;;;;14.38;4.50;;;12.50;99.90;;;;;;5095297;28;20177;-67
2023/03/30 11:18:03;;;;;;;13.05;4.10;;;12.70;99.90;;;;;;5095702;28;20646;-66
2023/03/30 11:20:59;;;;;;;10.60;4.40;;;12.90;99.90;;;;;;5097041;28;20203;-74
2023/03/30 11:23:27;;;;;;;15.07;4.38;;;13.40;99.90;;;;;;5096177;28;20212;-72
2023/03/30 11:26:01;;;;;;;8.73;3.50;;;13.60;99.90;;;;;;5096678;28;20253;-68
2023/03/30 11:28:52;;;;;;;10.60;4.60;;;13.80;99.90;;;;;;5095063;28;20644;-73
2023/03/30 11:31:55;;;;;;;7.15;3.83;;;13.90;99.90;;;;;;5096865;28;20153;-69
2023/03/30 11:35:00;;;;;;;9.57;3.55;;;14.40;99.90;;;;;;5096277;28;20162;-69
2023/03/30 11:37:41;;;;;;;14.20;4.25;;;14.60;99.90;;;;;;5094926;28;20697;-69
2023/03/30 11:40:28;;;;;;;7.32;3.75;;;14.90;99.90;;;;;;5094817;28;20246;-69
2023/03/30 11:42:55;;;;;;;9.02;3.95;;;14.80;99.90;;;;;;5094807;28;20739;-69
2023/03/30 11:45:43;;;;;;;10.30;3.78;;;14.90;99.90;;;;;;5095968;28;20255;-69
2023/03/30 11:48:39;;;;;;;10.32;4.07;;;14.70;99.90;;;;;;5096058;28;20146;-69
2023/03/30 11:51:34;;;;;;;11.00;4.00;;;14.60;99.90;;;;;;5095787;28;20621;-69
2023/03/30 11:54:34;;;;;;;14.85;4.15;;;14.80;99.90;;;;;;5095963;28;20597;-69
2023/03/30 11:57:17;;;;;;;12.30;4.00;;;14.80;99.90;;;;;;5094087;28;20189;-69
2023/03/30 11:59:50;;;;;;;11.77;3.97;;;14.80;99.90;;;;;;5093877;28;20208;-68
2023/03/30 12:02:32;;;;;;;10.48;4.18;;;14.80;99.90;;;;;;5094433;28;20202;-69
2023/03/30 12:04:57;;;;;;;8.82;4.07;;;15.10;99.90;;;;;;5095542;28;20276;-68
2023/03/30 12:07:31;;;;;;;8.18;3.92;;;15.00;99.90;;;;;;5095685;28;20205;-73
2023/03/30 12:10:06;;;;;;;8.98;4.00;;;15.00;99.90;;;;;;5095703;28;20193;-74
2023/03/30 12:12:38;;;;;;;6.68;4.28;;;15.40;99.90;;;;;;5095939;28;20165;-73
2023/03/30 12:15:39;;;;;;;9.98;3.42;;;15.30;99.90;;;;;;5095469;28;20249;-67
2023/03/30 12:18:43;;;;;;;11.45;4.40;;;15.30;99.90;;;;;;5094148;28;20255;-67
2023/03/30 12:21:12;;;;;;;10.68;4.15;;;14.80;99.90;;;;;;5086774;28;20189;-67
2023/03/30 12:24:02;;;;;;;10.70;3.95;;;14.50;99.90;;;;;;5094065;28;20185;-67
2023/03/30 12:26:31;;;;;;;7.45;3.88;;;14.60;99.90;;;;;;5094630;28;20264;-64
2023/03/30 12:28:58;;;;;;;11.52;3.58;;;14.40;99.90;;;;;;5094111;28;20193;-69
2023/03/30 12:31:46;;;;;;;8.85;3.55;;;14.70;99.90;;;;;;5094926;28;20176;-67
2023/03/30 12:34:12;;;;;;;11.40;3.85;;;15.00;99.90;;;;;;5098048;28;20196;-68
2023/03/30 12:36:47;;;;;;;8.52;3.42;;;14.90;99.90;;;;;;5096884;28;20637;-67
2023/03/30 12:39:30;;;;;;;9.00;3.13;;;14.90;99.90;;;;;;5095202;28;20192;-68
2023/03/30 12:42:04;;;;;;;9.95;3.55;;;14.90;99.90;;;;;;5096201;28;20176;-70
2023/03/30 12:44:51;;;;;;;10.70;3.85;;;14.80;99.90;;;;;;5096360;28;20200;-68
2023/03/30 12:47:51;;;;;;;10.70;3.25;;;14.80;99.90;;;;;;5098173;28;20173;-70
2023/03/30 12:50:45;;;;;;;4.97;3.05;;;14.90;99.90;;;;;;5096492;28;20189;-69
2023/03/30 12:53:23;;;;;;;8.27;3.40;;;14.90;99.90;;;;;;5095030;28;20692;-69
2023/03/30 12:55:56;;;;;;;7.65;3.22;;;14.80;99.90;;;;;;5096284;28;20173;-68
2023/03/30 12:58:43;;;;;;;9.43;3.58;;;14.80;99.90;;;;;;5095915;28;20577;-65
2023/03/30 13:01:37;;;;;;;9.07;3.30;;;14.60;99.90;;;;;;5094978;28;20169;-67
2023/03/30 13:04:12;;;;;;;8.05;2.78;;;14.30;99.90;;;;;;5095642;28;20226;-68
2023/03/30 13:06:57;;;;;;;4.93;2.95;;;14.10;99.90;;;;;;5096364;28;20226;-70
2023/03/30 13:09:26;;;;;;;6.20;3.13;;;13.90;99.90;;;;;;5095468;28;20181;-66
2023/03/30 13:11:53;;;;;;;5.53;3.08;;;13.30;99.90;;;;;;5095444;28;20208;-67